sensor_id;sensor_type;location;lat;lon;timestamp;temperature;humidity
35692;DHT22;26978;44.830;-0.674;2022-10-31T00:00:06;16.10;99.90
35692;DHT22;26978;44.830;-0.674;2022-10-31T00:02:31;16.10;99.90
35692;DHT22;26978;44.830;-0.674;2022-10-31T00:04:57;16.20;99.90
35692;DHT22;26978;44.830;-0.674;2022-10-31T00:07:22;16.20;99.90
35692;DHT22;26978;44.830;-0.674;2022-10-31T00:09:48;16.20;99.90
35692;DHT22;26978;44.830;-0.674;2022-10-31T00:12:13;16.20;99.90
35692;DHT22;26978;44.830;-0.674;2022-10-31T00:14:39;16.10;99.90
35692;DHT22;26978;44.830;-0.674;2022-10-31T00:17:04;16.10;99.90
35692;DHT22;26978;44.830;-0.674;2022-10-31T00:19:30;16.10;99.90
35692;DHT22;26978;44.830;-0.674;2022-10-31T00:21:56;16.10;99.90
35692;DHT22;26978;44.830;-0.674;2022-10-31T00:24:21;16.00;99.90
35692;DHT22;26978;44.830;-0.674;2022-10-31T00:26:47;16.10;99.90
35692;DHT22;26978;44.830;-0.674;2022-10-31T00:29:12;16.10;99.90
35692;DHT22;26978;44.830;-0.674;2022-10-31T00:31:38;16.10;99.90
35692;DHT22;26978;44.830;-0.674;2022-10-31T00:34:03;16.10;99.90
35692;DHT22;26978;44.830;-0.674;2022-10-31T00:36:29;16.00;99.90
35692;DHT22;26978;44.830;-0.674;2022-10-31T00:38:55;16.00;99.90
35692;DHT22;26978;44.830;-0.674;2022-10-31T00:41:26;16.00;99.90
35692;DHT22;26978;44.830;-0.674;2022-10-31T00:43:52;16.10;99.90
35692;DHT22;26978;44.830;-0.674;2022-10-31T00:46:17;16.20;99.90
35692;DHT22;26978;44.830;-0.674;2022-10-31T00:48:43;16.20;99.90
35692;DHT22;26978;44.830;-0.674;2022-10-31T00:51:09;16.10;99.90
35692;DHT22;26978;44.830;-0.674;2022-10-31T00:53:34;16.00;99.90
35692;DHT22;26978;44.830;-0.674;2022-10-31T00:56:00;16.00;99.90
35692;DHT22;26978;44.830;-0.674;2022-10-31T00:58:26;16.10;99.90
35692;DHT22;26978;44.830;-0.674;2022-10-31T01:00:52;16.10;99.90
35692;DHT22;26978;44.830;-0.674;2022-10-31T01:03:24;16.20;99.90
35692;DHT22;26978;44.830;-0.674;2022-10-31T01:05:57;16.20;99.90
35692;DHT22;26978;44.830;-0.674;2022-10-31T01:08:23;16.40;99.90
35692;DHT22;26978;44.830;-0.674;2022-10-31T01:11:11;16.50;99.90
35692;DHT22;26978;44.830;-0.674;2022-10-31T01:13:34;16.50;99.90
35692;DHT22;26978;44.830;-0.674;2022-10-31T01:16:00;16.50;99.90
35692;DHT22;26978;44.830;-0.674;2022-10-31T01:18:26;16.40;99.90
35692;DHT22;26978;44.830;-0.674;2022-10-31T01:23:24;16.30;99.90
35692;DHT22;26978;44.830;-0.674;2022-10-31T01:25:50;16.30;99.90
35692;DHT22;26978;44.830;-0.674;2022-10-31T01:28:23;16.20;99.90
35692;DHT22;26978;44.830;-0.674;2022-10-31T01:30:48;16.10;99.90
35692;DHT22;26978;44.830;-0.674;2022-10-31T01:33:14;16.10;99.90
35692;DHT22;26978;44.830;-0.674;2022-10-31T01:35:40;16.00;99.90
35692;DHT22;26978;44.830;-0.674;2022-10-31T01:38:06;16.00;99.90
35692;DHT22;26978;44.830;-0.674;2022-10-31T01:40:31;16.10;99.90
35692;DHT22;26978;44.830;-0.674;2022-10-31T01:42:57;16.10;99.90
35692;DHT22;26978;44.830;-0.674;2022-10-31T08:14:54;15.30;99.90
35692;DHT22;26978;44.830;-0.674;2022-10-31T08:17:20;15.40;99.90
35692;DHT22;26978;44.830;-0.674;2022-10-31T08:19:45;15.30;99.90
35692;DHT22;26978;44.830;-0.674;2022-10-31T08:22:11;15.30;99.90
35692;DHT22;26978;44.830;-0.674;2022-10-31T08:24:37;15.10;99.90
35692;DHT22;26978;44.830;-0.674;2022-10-31T08:27:02;15.30;99.90
35692;DHT22;26978;44.830;-0.674;2022-10-31T08:29:28;15.30;99.90
35692;DHT22;26978;44.830;-0.674;2022-10-31T08:31:53;15.50;99.90
35692;DHT22;26978;44.830;-0.674;2022-10-31T08:34:19;15.50;99.90
35692;DHT22;26978;44.830;-0.674;2022-10-31T08:36:44;15.70;99.90
35692;DHT22;26978;44.830;-0.674;2022-10-31T08:39:11;15.90;99.90
35692;DHT22;26978;44.830;-0.674;2022-10-31T08:41:37;15.90;99.90
35692;DHT22;26978;44.830;-0.674;2022-10-31T08:44:02;16.10;99.90
35692;DHT22;26978;44.830;-0.674;2022-10-31T08:48:54;16.10;99.90
35692;DHT22;26978;44.830;-0.674;2022-10-31T08:51:19;16.10;99.90
35692;DHT22;26978;44.830;-0.674;2022-10-31T08:53:45;16.10;99.90
35692;DHT22;26978;44.830;-0.674;2022-10-31T08:56:10;16.20;99.90
35692;DHT22;26978;44.830;-0.674;2022-10-31T08:58:36;16.20;99.90
35692;DHT22;26978;44.830;-0.674;2022-10-31T09:01:01;16.40;99.90
35692;DHT22;26978;44.830;-0.674;2022-10-31T09:03:30;16.40;99.90
35692;DHT22;26978;44.830;-0.674;2022-10-31T09:06:00;16.40;99.90
35692;DHT22;26978;44.830;-0.674;2022-10-31T09:08:26;16.40;99.90
35692;DHT22;26978;44.830;-0.674;2022-10-31T09:10:51;16.50;99.90
35692;DHT22;26978;44.830;-0.674;2022-10-31T09:13:20;16.50;99.90
35692;DHT22;26978;44.830;-0.674;2022-10-31T09:15:47;16.70;99.90
35692;DHT22;26978;44.830;-0.674;2022-10-31T09:18:13;16.70;99.90
35692;DHT22;26978;44.830;-0.674;2022-10-31T09:20:39;16.80;99.90
35692;DHT22;26978;44.830;-0.674;2022-10-31T09:23:09;16.90;99.90
35692;DHT22;26978;44.830;-0.674;2022-10-31T09:25:35;16.90;99.90
35692;DHT22;26978;44.830;-0.674;2022-10-31T09:28:01;17.00;99.90
35692;DHT22;26978;44.830;-0.674;2022-10-31T09:40:11;17.40;99.90
35692;DHT22;26978;44.830;-0.674;2022-10-31T09:45:46;17.60;99.90
35692;DHT22;26978;44.830;-0.674;2022-10-31T09:50:40;17.60;99.90
35692;DHT22;26978;44.830;-0.674;2022-10-31T09:55:47;17.80;99.90
35692;DHT22;26978;44.830;-0.674;2022-10-31T09:58:23;17.90;99.90
35692;DHT22;26978;44.830;-0.674;2022-10-31T10:00:49;18.10;99.90
35692;DHT22;26978;44.830;-0.674;2022-10-31T10:05:51;18.20;99.90
35692;DHT22;26978;44.830;-0.674;2022-10-31T10:08:19;18.50;99.90
35692;DHT22;26978;44.830;-0.674;2022-10-31T10:11:03;18.70;99.90
35692;DHT22;26978;44.830;-0.674;2022-10-31T10:13:46;18.90;99.90
35692;DHT22;26978;44.830;-0.674;2022-10-31T10:26:42;18.80;99.90
35692;DHT22;26978;44.830;-0.674;2022-10-31T10:29:22;18.80;99.90
35692;DHT22;26978;44.830;-0.674;2022-10-31T10:31:50;18.60;99.90
35692;DHT22;26978;44.830;-0.674;2022-10-31T10:34:30;18.60;99.90
35692;DHT22;26978;44.830;-0.674;2022-10-31T10:37:05;18.60;99.90
35692;DHT22;26978;44.830;-0.674;2022-10-31T10:39:40;18.50;99.90
35692;DHT22;26978;44.830;-0.674;2022-10-31T10:42:09;18.50;99.90
35692;DHT22;26978;44.830;-0.674;2022-10-31T10:44:54;18.50;99.90
35692;DHT22;26978;44.830;-0.674;2022-10-31T10:47:47;18.50;99.90
35692;DHT22;26978;44.830;-0.674;2022-10-31T10:55:32;18.70;99.90
35692;DHT22;26978;44.830;-0.674;2022-10-31T11:02:57;18.80;99.90
35692;DHT22;26978;44.830;-0.674;2022-10-31T11:05:28;18.80;99.90
35692;DHT22;26978;44.830;-0.674;2022-10-31T11:07:54;18.70;99.90
35692;DHT22;26978;44.830;-0.674;2022-10-31T11:10:20;18.90;99.90
35692;DHT22;26978;44.830;-0.674;2022-10-31T11:12:58;18.90;99.90
35692;DHT22;26978;44.830;-0.674;2022-10-31T11:15:24;18.90;99.90
35692;DHT22;26978;44.830;-0.674;2022-10-31T11:17:51;18.90;99.90
35692;DHT22;26978;44.830;-0.674;2022-10-31T11:22:44;19.00;99.90
35692;DHT22;26978;44.830;-0.674;2022-10-31T11:27:44;19.00;99.90
35692;DHT22;26978;44.830;-0.674;2022-10-31T11:30:12;19.10;99.90
35692;DHT22;26978;44.830;-0.674;2022-10-31T11:32:39;19.10;99.90
35692;DHT22;26978;44.830;-0.674;2022-10-31T11:35:09;19.10;99.90
35692;DHT22;26978;44.830;-0.674;2022-10-31T11:37:39;19.10;99.90
35692;DHT22;26978;44.830;-0.674;2022-10-31T11:40:14;19.10;99.90
35692;DHT22;26978;44.830;-0.674;2022-10-31T11:42:59;19.10;99.90
35692;DHT22;26978;44.830;-0.674;2022-10-31T11:45:29;19.10;99.90
35692;DHT22;26978;44.830;-0.674;2022-10-31T11:47:56;18.90;99.90
35692;DHT22;26978;44.830;-0.674;2022-10-31T11:50:23;18.90;99.90
35692;DHT22;26978;44.830;-0.674;2022-10-31T11:52:50;18.90;99.90
35692;DHT22;26978;44.830;-0.674;2022-10-31T11:55:17;18.90;99.90
35692;DHT22;26978;44.830;-0.674;2022-10-31T11:57:54;19.00;99.90
35692;DHT22;26978;44.830;-0.674;2022-10-31T12:00:25;18.90;99.90
35692;DHT22;26978;44.830;-0.674;2022-10-31T12:02:51;19.00;99.90
35692;DHT22;26978;44.830;-0.674;2022-10-31T12:05:28;19.10;99.90
35692;DHT22;26978;44.830;-0.674;2022-10-31T12:07:58;19.30;99.90
35692;DHT22;26978;44.830;-0.674;2022-10-31T12:10:24;19.40;99.90
35692;DHT22;26978;44.830;-0.674;2022-10-31T12:12:56;19.50;99.90
35692;DHT22;26978;44.830;-0.674;2022-10-31T12:15:29;19.60;99.90
35692;DHT22;26978;44.830;-0.674;2022-10-31T12:18:17;19.50;99.90
35692;DHT22;26978;44.830;-0.674;2022-10-31T12:30:51;19.80;99.90
35692;DHT22;26978;44.830;-0.674;2022-10-31T12:35:45;19.80;99.90
35692;DHT22;26978;44.830;-0.674;2022-10-31T12:38:25;19.70;99.90
35692;DHT22;26978;44.830;-0.674;2022-10-31T12:43:46;19.70;99.90
35692;DHT22;26978;44.830;-0.674;2022-10-31T12:46:27;19.60;99.90
35692;DHT22;26978;44.830;-0.674;2022-10-31T12:49:02;19.50;99.90
35692;DHT22;26978;44.830;-0.674;2022-10-31T12:51:37;19.40;99.90
35692;DHT22;26978;44.830;-0.674;2022-10-31T12:56:40;19.30;99.90
35692;DHT22;26978;44.830;-0.674;2022-10-31T12:59:12;19.40;99.90
35692;DHT22;26978;44.830;-0.674;2022-10-31T13:06:46;19.50;99.90
35692;DHT22;26978;44.830;-0.674;2022-10-31T13:09:17;19.50;99.90
35692;DHT22;26978;44.830;-0.674;2022-10-31T13:11:44;19.50;99.90
35692;DHT22;26978;44.830;-0.674;2022-10-31T13:14:56;19.40;99.90
35692;DHT22;26978;44.830;-0.674;2022-10-31T13:16:56;19.50;99.90
35692;DHT22;26978;44.830;-0.674;2022-10-31T13:19:42;19.40;99.90
35692;DHT22;26978;44.830;-0.674;2022-10-31T13:22:10;19.50;99.90
35692;DHT22;26978;44.830;-0.674;2022-10-31T13:24:55;19.40;99.90
35692;DHT22;26978;44.830;-0.674;2022-10-31T13:27:23;19.30;99.90
35692;DHT22;26978;44.830;-0.674;2022-10-31T13:32:15;19.40;99.90
35692;DHT22;26978;44.830;-0.674;2022-10-31T13:34:42;19.40;99.90
35692;DHT22;26978;44.830;-0.674;2022-10-31T13:44:35;19.30;99.90
35692;DHT22;26978;44.830;-0.674;2022-10-31T13:47:18;19.30;99.90
35692;DHT22;26978;44.830;-0.674;2022-10-31T13:49:45;19.20;99.90
35692;DHT22;26978;44.830;-0.674;2022-10-31T13:54:41;19.00;99.90
35692;DHT22;26978;44.830;-0.674;2022-10-31T13:57:07;19.00;99.90
35692;DHT22;26978;44.830;-0.674;2022-10-31T13:59:33;19.00;99.90
35692;DHT22;26978;44.830;-0.674;2022-10-31T14:02:02;19.00;99.90
35692;DHT22;26978;44.830;-0.674;2022-10-31T14:04:38;19.00;99.90
35692;DHT22;26978;44.830;-0.674;2022-10-31T14:07:08;18.90;99.90
35692;DHT22;26978;44.830;-0.674;2022-10-31T14:09:35;18.90;99.90
35692;DHT22;26978;44.830;-0.674;2022-10-31T14:12:06;18.90;99.90
35692;DHT22;26978;44.830;-0.674;2022-10-31T14:14:34;18.80;99.90
35692;DHT22;26978;44.830;-0.674;2022-10-31T14:17:01;18.80;99.90
35692;DHT22;26978;44.830;-0.674;2022-10-31T14:19:26;18.80;99.90
35692;DHT22;26978;44.830;-0.674;2022-10-31T14:21:52;18.80;99.90
35692;DHT22;26978;44.830;-0.674;2022-10-31T14:26:57;18.70;99.90
35692;DHT22;26978;44.830;-0.674;2022-10-31T14:29:24;18.70;99.90
35692;DHT22;26978;44.830;-0.674;2022-10-31T14:32:35;18.60;99.90
35692;DHT22;26978;44.830;-0.674;2022-10-31T14:50:45;18.60;99.90
35692;DHT22;26978;44.830;-0.674;2022-10-31T14:53:35;18.50;99.90
35692;DHT22;26978;44.830;-0.674;2022-10-31T14:55:59;18.50;99.90
35692;DHT22;26978;44.830;-0.674;2022-10-31T15:00:56;18.50;99.90
35692;DHT22;26978;44.830;-0.674;2022-10-31T15:03:30;18.50;99.90
35692;DHT22;26978;44.830;-0.674;2022-10-31T15:05:59;18.60;99.90
35692;DHT22;26978;44.830;-0.674;2022-10-31T15:08:39;18.60;99.90
35692;DHT22;26978;44.830;-0.674;2022-10-31T15:13:41;18.60;99.90
35692;DHT22;26978;44.830;-0.674;2022-10-31T15:16:07;18.70;99.90
35692;DHT22;26978;44.830;-0.674;2022-10-31T15:18:33;18.70;99.90
35692;DHT22;26978;44.830;-0.674;2022-10-31T15:20:59;18.70;99.90
35692;DHT22;26978;44.830;-0.674;2022-10-31T15:23:25;18.70;99.90
35692;DHT22;26978;44.830;-0.674;2022-10-31T15:26:02;18.80;99.90
35692;DHT22;26978;44.830;-0.674;2022-10-31T15:28:28;18.70;99.90
35692;DHT22;26978;44.830;-0.674;2022-10-31T15:30:55;18.70;99.90
35692;DHT22;26978;44.830;-0.674;2022-10-31T15:33:28;18.80;99.90
35692;DHT22;26978;44.830;-0.674;2022-10-31T15:36:02;18.80;99.90
35692;DHT22;26978;44.830;-0.674;2022-10-31T15:38:28;18.70;99.90
35692;DHT22;26978;44.830;-0.674;2022-10-31T15:43:20;18.70;99.90
35692;DHT22;26978;44.830;-0.674;2022-10-31T15:45:45;18.70;99.90
35692;DHT22;26978;44.830;-0.674;2022-10-31T15:50:45;18.60;99.90
35692;DHT22;26978;44.830;-0.674;2022-10-31T15:53:18;18.60;99.90
35692;DHT22;26978;44.830;-0.674;2022-10-31T15:55:55;18.60;99.90
35692;DHT22;26978;44.830;-0.674;2022-10-31T15:58:21;18.60;99.90
35692;DHT22;26978;44.830;-0.674;2022-10-31T16:01:00;18.60;99.90
35692;DHT22;26978;44.830;-0.674;2022-10-31T16:03:28;18.60;99.90
35692;DHT22;26978;44.830;-0.674;2022-10-31T16:05:57;18.50;99.90
35692;DHT22;26978;44.830;-0.674;2022-10-31T16:10:56;18.60;99.90
35692;DHT22;26978;44.830;-0.674;2022-10-31T16:13:29;18.50;99.90
35692;DHT22;26978;44.830;-0.674;2022-10-31T16:16:00;18.50;99.90
35692;DHT22;26978;44.830;-0.674;2022-10-31T16:18:26;18.40;99.90
35692;DHT22;26978;44.830;-0.674;2022-10-31T16:20:53;18.50;99.90
35692;DHT22;26978;44.830;-0.674;2022-10-31T16:23:21;18.50;99.90
35692;DHT22;26978;44.830;-0.674;2022-10-31T16:25:47;18.50;99.90
35692;DHT22;26978;44.830;-0.674;2022-10-31T16:28:17;18.50;99.90
35692;DHT22;26978;44.830;-0.674;2022-10-31T16:30:44;18.50;99.90
35692;DHT22;26978;44.830;-0.674;2022-10-31T16:33:24;18.40;99.90
35692;DHT22;26978;44.830;-0.674;2022-10-31T16:35:50;18.30;99.90
35692;DHT22;26978;44.830;-0.674;2022-10-31T16:38:15;18.40;99.90
35692;DHT22;26978;44.830;-0.674;2022-10-31T16:40:41;18.40;99.90
35692;DHT22;26978;44.830;-0.674;2022-10-31T16:43:13;18.40;99.90
35692;DHT22;26978;44.830;-0.674;2022-10-31T16:45:43;18.40;99.90
35692;DHT22;26978;44.830;-0.674;2022-10-31T16:48:11;18.50;99.90
35692;DHT22;26978;44.830;-0.674;2022-10-31T16:50:37;18.40;99.90
35692;DHT22;26978;44.830;-0.674;2022-10-31T16:53:02;18.50;99.90
35692;DHT22;26978;44.830;-0.674;2022-10-31T16:55:28;18.40;99.90
35692;DHT22;26978;44.830;-0.674;2022-10-31T16:57:54;18.50;99.90
35692;DHT22;26978;44.830;-0.674;2022-10-31T17:00:21;18.50;99.90
35692;DHT22;26978;44.830;-0.674;2022-10-31T17:02:48;18.50;99.90
35692;DHT22;26978;44.830;-0.674;2022-10-31T17:05:15;18.50;99.90
35692;DHT22;26978;44.830;-0.674;2022-10-31T17:07:41;18.60;99.90
35692;DHT22;26978;44.830;-0.674;2022-10-31T17:10:07;18.60;99.90
35692;DHT22;26978;44.830;-0.674;2022-10-31T17:12:32;18.70;99.90
35692;DHT22;26978;44.830;-0.674;2022-10-31T17:14:58;18.80;99.90
35692;DHT22;26978;44.830;-0.674;2022-10-31T17:17:24;18.80;99.90
35692;DHT22;26978;44.830;-0.674;2022-10-31T17:19:49;18.80;99.90
35692;DHT22;26978;44.830;-0.674;2022-10-31T17:22:15;18.90;99.90
35692;DHT22;26978;44.830;-0.674;2022-10-31T17:24:41;18.90;99.90
35692;DHT22;26978;44.830;-0.674;2022-10-31T17:27:06;19.20;99.90
35692;DHT22;26978;44.830;-0.674;2022-10-31T17:29:32;19.10;99.90
35692;DHT22;26978;44.830;-0.674;2022-10-31T17:31:57;19.20;99.90
35692;DHT22;26978;44.830;-0.674;2022-10-31T17:34:24;19.20;99.90
35692;DHT22;26978;44.830;-0.674;2022-10-31T17:36:50;19.30;99.90
35692;DHT22;26978;44.830;-0.674;2022-10-31T17:39:16;19.40;99.90
35692;DHT22;26978;44.830;-0.674;2022-10-31T17:41:42;19.50;99.90
35692;DHT22;26978;44.830;-0.674;2022-10-31T17:44:08;19.50;99.90
35692;DHT22;26978;44.830;-0.674;2022-10-31T17:46:34;19.40;99.90
35692;DHT22;26978;44.830;-0.674;2022-10-31T17:49:00;19.40;99.90
35692;DHT22;26978;44.830;-0.674;2022-10-31T17:51:26;19.10;99.90
35692;DHT22;26978;44.830;-0.674;2022-10-31T17:53:51;19.00;99.90
35692;DHT22;26978;44.830;-0.674;2022-10-31T17:56:17;18.90;99.90
35692;DHT22;26978;44.830;-0.674;2022-10-31T17:58:42;18.80;99.90
35692;DHT22;26978;44.830;-0.674;2022-10-31T18:01:09;18.70;99.90
35692;DHT22;26978;44.830;-0.674;2022-10-31T18:03:35;18.60;99.90
35692;DHT22;26978;44.830;-0.674;2022-10-31T18:06:00;18.70;99.90
35692;DHT22;26978;44.830;-0.674;2022-10-31T18:08:27;18.60;99.90
35692;DHT22;26978;44.830;-0.674;2022-10-31T18:10:53;18.50;99.90
35692;DHT22;26978;44.830;-0.674;2022-10-31T18:13:18;18.50;99.90
35692;DHT22;26978;44.830;-0.674;2022-10-31T18:15:44;18.50;99.90
35692;DHT22;26978;44.830;-0.674;2022-10-31T18:18:09;18.50;99.90
35692;DHT22;26978;44.830;-0.674;2022-10-31T18:20:35;18.60;99.90
35692;DHT22;26978;44.830;-0.674;2022-10-31T18:23:01;18.40;99.90
35692;DHT22;26978;44.830;-0.674;2022-10-31T18:25:26;18.20;99.90
35692;DHT22;26978;44.830;-0.674;2022-10-31T18:27:52;18.10;99.90
35692;DHT22;26978;44.830;-0.674;2022-10-31T18:30:17;18.00;99.90
35692;DHT22;26978;44.830;-0.674;2022-10-31T18:32:43;18.00;99.90
35692;DHT22;26978;44.830;-0.674;2022-10-31T18:35:09;17.90;99.90
35692;DHT22;26978;44.830;-0.674;2022-10-31T18:37:34;18.00;99.90
35692;DHT22;26978;44.830;-0.674;2022-10-31T18:40:00;17.90;99.90
35692;DHT22;26978;44.830;-0.674;2022-10-31T18:42:25;17.80;99.90
35692;DHT22;26978;44.830;-0.674;2022-10-31T18:44:51;17.80;99.90
35692;DHT22;26978;44.830;-0.674;2022-10-31T18:47:16;17.70;99.90
35692;DHT22;26978;44.830;-0.674;2022-10-31T18:49:43;17.60;99.90
35692;DHT22;26978;44.830;-0.674;2022-10-31T18:52:09;17.60;99.90
35692;DHT22;26978;44.830;-0.674;2022-10-31T18:54:34;17.60;99.90
35692;DHT22;26978;44.830;-0.674;2022-10-31T18:57:00;17.50;99.90
35692;DHT22;26978;44.830;-0.674;2022-10-31T18:59:25;17.60;99.90
35692;DHT22;26978;44.830;-0.674;2022-10-31T19:01:51;17.60;99.90
35692;DHT22;26978;44.830;-0.674;2022-10-31T19:04:16;17.60;99.90
35692;DHT22;26978;44.830;-0.674;2022-10-31T19:06:42;17.60;99.90
35692;DHT22;26978;44.830;-0.674;2022-10-31T19:09:08;17.70;99.90
35692;DHT22;26978;44.830;-0.674;2022-10-31T19:11:36;17.60;99.90
35692;DHT22;26978;44.830;-0.674;2022-10-31T19:14:02;17.70;99.90
35692;DHT22;26978;44.830;-0.674;2022-10-31T19:16:28;17.60;99.90
35692;DHT22;26978;44.830;-0.674;2022-10-31T19:18:54;17.60;99.90
35692;DHT22;26978;44.830;-0.674;2022-10-31T19:21:20;17.60;99.90
35692;DHT22;26978;44.830;-0.674;2022-10-31T19:23:46;17.60;99.90
35692;DHT22;26978;44.830;-0.674;2022-10-31T19:26:12;17.60;99.90
35692;DHT22;26978;44.830;-0.674;2022-10-31T19:28:38;17.60;99.90
35692;DHT22;26978;44.830;-0.674;2022-10-31T19:31:04;17.50;99.90
35692;DHT22;26978;44.830;-0.674;2022-10-31T19:33:30;17.40;99.90
35692;DHT22;26978;44.830;-0.674;2022-10-31T19:38:24;17.30;99.90
35692;DHT22;26978;44.830;-0.674;2022-10-31T19:40:54;17.30;99.90
35692;DHT22;26978;44.830;-0.674;2022-10-31T19:43:20;17.40;99.90
35692;DHT22;26978;44.830;-0.674;2022-10-31T19:45:52;17.30;99.90
35692;DHT22;26978;44.830;-0.674;2022-10-31T19:48:18;17.10;99.90
35692;DHT22;26978;44.830;-0.674;2022-10-31T19:50:43;17.00;99.90
35692;DHT22;26978;44.830;-0.674;2022-10-31T19:53:09;17.00;99.90
35692;DHT22;26978;44.830;-0.674;2022-10-31T19:55:38;16.90;99.90
35692;DHT22;26978;44.830;-0.674;2022-10-31T19:58:03;16.80;99.90
35692;DHT22;26978;44.830;-0.674;2022-10-31T20:00:28;16.80;99.90
35692;DHT22;26978;44.830;-0.674;2022-10-31T20:02:54;16.60;99.90
35692;DHT22;26978;44.830;-0.674;2022-10-31T20:05:20;16.60;99.90
35692;DHT22;26978;44.830;-0.674;2022-10-31T20:07:45;16.50;99.90
35692;DHT22;26978;44.830;-0.674;2022-10-31T20:10:11;16.50;99.90
35692;DHT22;26978;44.830;-0.674;2022-10-31T20:12:36;16.40;99.90
35692;DHT22;26978;44.830;-0.674;2022-10-31T20:15:02;16.40;99.90
35692;DHT22;26978;44.830;-0.674;2022-10-31T20:17:27;16.40;99.90
35692;DHT22;26978;44.830;-0.674;2022-10-31T20:19:53;16.40;99.90
35692;DHT22;26978;44.830;-0.674;2022-10-31T20:22:19;16.30;99.90
35692;DHT22;26978;44.830;-0.674;2022-10-31T20:24:44;16.40;99.90
35692;DHT22;26978;44.830;-0.674;2022-10-31T20:27:10;16.30;99.90
35692;DHT22;26978;44.830;-0.674;2022-10-31T20:29:35;16.10;99.90
35692;DHT22;26978;44.830;-0.674;2022-10-31T20:32:01;15.90;99.90
35692;DHT22;26978;44.830;-0.674;2022-10-31T20:34:26;15.90;99.90
35692;DHT22;26978;44.830;-0.674;2022-10-31T20:36:52;15.70;99.90
35692;DHT22;26978;44.830;-0.674;2022-10-31T20:39:17;15.70;99.90
35692;DHT22;26978;44.830;-0.674;2022-10-31T20:41:43;15.60;99.90
35692;DHT22;26978;44.830;-0.674;2022-10-31T20:44:08;15.50;99.90
35692;DHT22;26978;44.830;-0.674;2022-10-31T20:46:34;15.40;99.90
35692;DHT22;26978;44.830;-0.674;2022-10-31T20:48:59;15.40;99.90
35692;DHT22;26978;44.830;-0.674;2022-10-31T20:51:26;15.40;99.90
35692;DHT22;26978;44.830;-0.674;2022-10-31T20:53:52;15.40;99.90
35692;DHT22;26978;44.830;-0.674;2022-10-31T20:56:20;15.30;99.90
35692;DHT22;26978;44.830;-0.674;2022-10-31T20:58:46;15.30;99.90
35692;DHT22;26978;44.830;-0.674;2022-10-31T21:01:12;15.20;99.90
35692;DHT22;26978;44.830;-0.674;2022-10-31T21:03:38;15.20;99.90
35692;DHT22;26978;44.830;-0.674;2022-10-31T21:06:04;15.10;99.90
35692;DHT22;26978;44.830;-0.674;2022-10-31T21:08:30;15.10;99.90
35692;DHT22;26978;44.830;-0.674;2022-10-31T21:10:56;15.10;99.90
35692;DHT22;26978;44.830;-0.674;2022-10-31T21:13:22;15.10;99.90
35692;DHT22;26978;44.830;-0.674;2022-10-31T21:15:57;15.00;99.90
35692;DHT22;26978;44.830;-0.674;2022-10-31T21:18:23;15.00;99.90
35692;DHT22;26978;44.830;-0.674;2022-10-31T21:20:48;15.00;99.90
35692;DHT22;26978;44.830;-0.674;2022-10-31T21:23:14;15.10;99.90
35692;DHT22;26978;44.830;-0.674;2022-10-31T21:25:40;15.10;99.90
35692;DHT22;26978;44.830;-0.674;2022-10-31T21:28:06;15.20;99.90
35692;DHT22;26978;44.830;-0.674;2022-10-31T21:30:32;15.30;99.90
35692;DHT22;26978;44.830;-0.674;2022-10-31T21:32:58;15.20;99.90
35692;DHT22;26978;44.830;-0.674;2022-10-31T21:35:23;15.30;99.90
35692;DHT22;26978;44.830;-0.674;2022-10-31T21:37:49;15.40;99.90
35692;DHT22;26978;44.830;-0.674;2022-10-31T21:40:14;15.40;99.90
35692;DHT22;26978;44.830;-0.674;2022-10-31T21:42:40;15.40;99.90
35692;DHT22;26978;44.830;-0.674;2022-10-31T21:45:05;15.40;99.90
35692;DHT22;26978;44.830;-0.674;2022-10-31T21:47:31;15.50;99.90
35692;DHT22;26978;44.830;-0.674;2022-10-31T21:49:56;15.50;99.90
35692;DHT22;26978;44.830;-0.674;2022-10-31T21:52:22;15.50;99.90
35692;DHT22;26978;44.830;-0.674;2022-10-31T21:54:47;15.50;99.90
35692;DHT22;26978;44.830;-0.674;2022-10-31T21:57:13;15.50;99.90
35692;DHT22;26978;44.830;-0.674;2022-10-31T21:59:38;15.50;99.90
35692;DHT22;26978;44.830;-0.674;2022-10-31T22:02:10;15.50;99.90
35692;DHT22;26978;44.830;-0.674;2022-10-31T22:04:36;15.50;99.90
35692;DHT22;26978;44.830;-0.674;2022-10-31T22:07:02;15.50;99.90
35692;DHT22;26978;44.830;-0.674;2022-10-31T22:09:27;15.40;99.90
35692;DHT22;26978;44.830;-0.674;2022-10-31T22:11:53;15.40;99.90
35692;DHT22;26978;44.830;-0.674;2022-10-31T22:14:18;15.50;99.90
35692;DHT22;26978;44.830;-0.674;2022-10-31T22:16:44;15.40;99.90
35692;DHT22;26978;44.830;-0.674;2022-10-31T22:19:10;15.40;99.90
35692;DHT22;26978;44.830;-0.674;2022-10-31T22:21:38;15.40;99.90
35692;DHT22;26978;44.830;-0.674;2022-10-31T22:24:03;15.40;99.90
35692;DHT22;26978;44.830;-0.674;2022-10-31T22:26:29;15.40;99.90
35692;DHT22;26978;44.830;-0.674;2022-10-31T22:28:55;15.40;99.90
35692;DHT22;26978;44.830;-0.674;2022-10-31T22:31:24;15.40;99.90
35692;DHT22;26978;44.830;-0.674;2022-10-31T22:33:50;15.40;99.90
35692;DHT22;26978;44.830;-0.674;2022-10-31T22:36:16;15.40;99.90
35692;DHT22;26978;44.830;-0.674;2022-10-31T22:38:42;15.40;99.90
35692;DHT22;26978;44.830;-0.674;2022-10-31T22:41:09;15.40;99.90
35692;DHT22;26978;44.830;-0.674;2022-10-31T22:43:35;15.30;99.90
35692;DHT22;26978;44.830;-0.674;2022-10-31T22:46:01;15.30;99.90
35692;DHT22;26978;44.830;-0.674;2022-10-31T22:48:30;15.30;99.90
35692;DHT22;26978;44.830;-0.674;2022-10-31T22:51:02;15.30;99.90
35692;DHT22;26978;44.830;-0.674;2022-10-31T22:53:28;15.20;99.90
35692;DHT22;26978;44.830;-0.674;2022-10-31T22:55:53;15.20;99.90
35692;DHT22;26978;44.830;-0.674;2022-10-31T22:58:19;15.20;99.90
35692;DHT22;26978;44.830;-0.674;2022-10-31T23:00:44;15.20;99.90
35692;DHT22;26978;44.830;-0.674;2022-10-31T23:03:10;15.20;99.90
35692;DHT22;26978;44.830;-0.674;2022-10-31T23:05:35;15.20;99.90
35692;DHT22;26978;44.830;-0.674;2022-10-31T23:08:01;15.20;99.90
35692;DHT22;26978;44.830;-0.674;2022-10-31T23:10:26;15.20;99.90
35692;DHT22;26978;44.830;-0.674;2022-10-31T23:13:00;15.20;99.90
35692;DHT22;26978;44.830;-0.674;2022-10-31T23:15:44;15.20;99.90
35692;DHT22;26978;44.830;-0.674;2022-10-31T23:18:10;15.10;99.90
35692;DHT22;26978;44.830;-0.674;2022-10-31T23:20:35;15.10;99.90
35692;DHT22;26978;44.830;-0.674;2022-10-31T23:23:01;15.10;99.90
35692;DHT22;26978;44.830;-0.674;2022-10-31T23:25:27;15.10;99.90
35692;DHT22;26978;44.830;-0.674;2022-10-31T23:28:11;15.00;99.90
35692;DHT22;26978;44.830;-0.674;2022-10-31T23:30:37;14.90;99.90
35692;DHT22;26978;44.830;-0.674;2022-10-31T23:33:02;14.90;99.90
35692;DHT22;26978;44.830;-0.674;2022-10-31T23:35:28;14.90;99.90
35692;DHT22;26978;44.830;-0.674;2022-10-31T23:37:53;14.80;99.90
35692;DHT22;26978;44.830;-0.674;2022-10-31T23:40:19;14.70;99.90
35692;DHT22;26978;44.830;-0.674;2022-10-31T23:42:46;14.70;99.90
35692;DHT22;26978;44.830;-0.674;2022-10-31T23:45:11;14.60;99.90
35692;DHT22;26978;44.830;-0.674;2022-10-31T23:47:37;14.50;99.90